createdAt,value
2018-10-09T00:00:40.513Z,7.48
2018-10-09T00:01:40.397Z,7.49
2018-10-09T00:02:40.336Z,7.57
2018-10-09T00:03:40.304Z,7.61
2018-10-09T00:04:40.281Z,7.68
2018-10-09T00:05:40.239Z,7.58
2018-10-09T00:06:40.168Z,7.58
2018-10-09T00:07:40.126Z,7.67
2018-10-09T00:08:40.095Z,7.67
2018-10-09T00:09:40.063Z,7.61
2018-10-09T00:10:40.013Z,7.55
2018-10-09T00:11:39.964Z,7.52
2018-10-09T00:12:39.926Z,7.45
2018-10-09T00:13:39.906Z,7.43
2018-10-09T00:14:39.825Z,7.35
2018-10-09T00:15:39.820Z,7.45
2018-10-09T00:16:39.745Z,7.46
2018-10-09T00:17:39.713Z,7.42
2018-10-09T00:18:39.657Z,7.37
2018-10-09T00:19:39.621Z,7.48
2018-10-09T00:20:39.569Z,7.42
2018-10-09T00:21:39.566Z,7.32
2018-10-09T00:22:39.486Z,7.30
2018-10-09T00:23:39.455Z,7.23
2018-10-09T00:24:39.398Z,7.37
2018-10-09T00:25:39.382Z,7.20
2018-10-09T00:26:39.365Z,7.25
2018-10-09T00:27:39.274Z,7.15
2018-10-09T00:28:39.236Z,7.21
2018-10-09T00:29:39.187Z,7.25
2018-10-09T00:30:39.151Z,7.27
2018-10-09T00:31:39.092Z,7.31
2018-10-09T00:32:39.736Z,7.32
2018-10-09T00:33:39.032Z,7.34
2018-10-09T00:34:38.965Z,7.43
2018-10-09T00:35:38.921Z,7.39
2018-10-09T00:36:38.896Z,7.31
2018-10-09T00:37:38.870Z,7.24
2018-10-09T00:38:38.801Z,7.23
2018-10-09T00:39:38.767Z,7.32
2018-10-09T00:40:38.717Z,7.24
2018-10-09T00:41:38.670Z,7.30
2018-10-09T00:42:38.654Z,7.21
2018-10-09T00:43:38.609Z,7.20
2018-10-09T00:44:38.540Z,7.07
2018-10-09T00:45:38.498Z,7.13
2018-10-09T00:46:38.495Z,7.12
2018-10-09T00:47:38.420Z,7.15
2018-10-09T00:48:38.407Z,7.12
2018-10-09T00:49:38.338Z,7.12
2018-10-09T00:50:38.288Z,7.12
2018-10-09T00:51:38.284Z,7.12
2018-10-09T00:52:38.200Z,7.10
2018-10-09T00:53:38.194Z,7.17
2018-10-09T00:54:38.119Z,7.10
2018-10-09T00:55:38.086Z,7.09
2018-10-09T00:56:38.025Z,7.09
2018-10-09T00:57:37.988Z,7.03
2018-10-09T00:58:37.972Z,6.98
2018-10-09T00:59:37.920Z,7.13
2018-10-09T01:00:37.860Z,6.98
2018-10-09T01:01:37.824Z,6.94
2018-10-09T01:02:37.788Z,6.97
2018-10-09T01:03:37.752Z,7.13
2018-10-09T01:04:37.710Z,7.09
2018-10-09T01:05:37.654Z,7.06
2018-10-09T01:06:37.624Z,7.16
2018-10-09T01:07:37.566Z,7.16
2018-10-09T01:08:37.523Z,7.20
2018-10-09T01:09:37.525Z,7.09
2018-10-09T01:10:37.443Z,7.06
2018-10-09T01:11:37.394Z,7.16
2018-10-09T01:12:37.359Z,7.23
2018-10-09T01:13:37.323Z,7.10
2018-10-09T01:14:37.307Z,7.20
2018-10-09T01:15:37.224Z,7.09
2018-10-09T01:16:37.174Z,7.09
2018-10-09T01:17:37.132Z,7.20
2018-10-09T01:18:37.097Z,7.20
2018-10-09T01:19:37.092Z,7.25
2018-10-09T01:20:37.001Z,7.24
2018-10-09T01:21:36.955Z,7.34
2018-10-09T01:22:36.937Z,7.34
2018-10-09T01:23:36.894Z,7.23
2018-10-09T01:24:36.867Z,7.31
2018-10-09T01:25:36.795Z,7.17
2018-10-09T01:26:36.742Z,7.21
2018-10-09T01:27:36.715Z,7.25
2018-10-09T01:28:36.662Z,7.27
2018-10-09T01:29:36.620Z,7.17
2018-10-09T01:30:36.620Z,7.16
2018-10-09T01:31:36.541Z,7.24
2018-10-09T01:32:36.505Z,7.16
2018-10-09T01:33:36.456Z,7.21
2018-10-09T01:34:36.402Z,7.09
2018-10-09T01:35:36.387Z,7.13
2018-10-09T01:36:36.322Z,7.10
2018-10-09T01:37:36.276Z,7.23
2018-10-09T01:38:36.226Z,7.05
2018-10-09T01:39:36.184Z,7.07
2018-10-09T01:40:36.168Z,7.07
2018-10-09T01:41:36.098Z,7.09
2018-10-09T01:42:36.073Z,7.12
2018-10-09T01:43:36.024Z,7.20
2018-10-09T01:44:35.979Z,7.10
2018-10-09T01:45:35.937Z,7.15
2018-10-09T01:46:35.912Z,7.10
2018-10-09T01:47:35.844Z,7.09
2018-10-09T01:48:35.800Z,7.12
2018-10-09T01:49:35.754Z,7.31
2018-10-09T01:50:35.722Z,7.27
2018-10-09T01:51:35.703Z,7.37
2018-10-09T01:52:35.628Z,7.20
2018-10-09T01:53:35.589Z,7.16
2018-10-09T01:54:35.549Z,7.24
2018-10-09T01:55:35.510Z,7.23
2018-10-09T01:56:35.492Z,7.21
2018-10-09T01:57:35.418Z,7.16
2018-10-09T01:58:35.378Z,7.10
2018-10-09T01:59:35.330Z,7.09
2018-10-09T02:00:35.288Z,7.16
2018-10-09T02:01:35.244Z,7.10
2018-10-09T02:02:35.231Z,7.23
2018-10-09T02:03:35.166Z,7.24
2018-10-09T02:04:35.129Z,7.23
2018-10-09T02:05:35.101Z,7.17
2018-10-09T02:06:35.030Z,7.24
2018-10-09T02:07:35.011Z,7.09
2018-10-09T02:08:34.950Z,7.09
2018-10-09T02:09:34.907Z,7.15
2018-10-09T02:10:34.858Z,7.13
2018-10-09T02:11:34.814Z,7.06
2018-10-09T02:12:34.794Z,7.15
2018-10-09T02:13:34.730Z,7.10
2018-10-09T02:14:34.696Z,7.02
2018-10-09T02:15:34.651Z,6.95
2018-10-09T02:16:34.610Z,6.94
2018-10-09T02:17:34.591Z,7.06
2018-10-09T02:18:34.520Z,7.02
2018-10-09T02:19:34.473Z,6.99
2018-10-09T02:20:34.431Z,7.07
2018-10-09T02:21:34.413Z,7.28
2018-10-09T02:22:34.353Z,7.28
2018-10-09T02:23:34.331Z,7.39
2018-10-09T02:24:34.259Z,7.43
2018-10-09T02:25:34.232Z,7.67
2018-10-09T02:26:34.182Z,7.72
2018-10-09T02:27:34.160Z,7.77
2018-10-09T02:28:34.120Z,7.74
2018-10-09T02:29:34.059Z,7.83
2018-10-09T02:30:34.002Z,8.01
2018-10-09T02:31:33.960Z,8.04
2018-10-09T02:32:33.945Z,8.01
2018-10-09T02:33:33.922Z,7.95
2018-10-09T02:34:33.841Z,8.00
2018-10-09T02:35:33.806Z,7.92
2018-10-09T02:36:33.757Z,7.95
2018-10-09T02:37:33.712Z,7.87
2018-10-09T02:38:33.660Z,7.90
2018-10-09T02:39:33.642Z,7.95
2018-10-09T02:40:33.583Z,7.92
2018-10-09T02:41:33.545Z,7.86
2018-10-09T02:42:33.491Z,7.85
2018-10-09T02:43:33.449Z,7.71
2018-10-09T02:44:33.429Z,7.80
2018-10-09T02:45:33.367Z,7.71
2018-10-09T02:46:33.327Z,7.82
2018-10-09T02:47:33.286Z,7.74
2018-10-09T02:48:33.244Z,7.74
2018-10-09T02:49:33.224Z,7.85
2018-10-09T02:50:33.147Z,7.77
2018-10-09T02:51:33.107Z,7.82
2018-10-09T02:52:33.066Z,7.89
2018-10-09T02:53:33.022Z,8.00
2018-10-09T02:54:33.005Z,8.00
2018-10-09T02:55:32.968Z,7.97
2018-10-09T02:56:32.895Z,8.10
2018-10-09T02:57:32.851Z,8.20
2018-10-09T02:58:32.817Z,8.30
2018-10-09T02:59:32.775Z,8.26
2018-10-09T03:00:32.752Z,8.25
2018-10-09T03:01:32.688Z,8.38
2018-10-09T03:02:32.637Z,8.48
2018-10-09T03:03:32.596Z,8.41
2018-10-09T03:04:32.551Z,8.44
2018-10-09T03:05:32.532Z,8.47
2018-10-09T03:06:32.475Z,8.53
2018-10-09T03:07:32.431Z,8.45
2018-10-09T03:08:32.417Z,8.59
2018-10-09T03:09:32.348Z,8.65
2018-10-09T03:10:32.324Z,8.59
2018-10-09T03:11:32.256Z,8.59
2018-10-09T03:12:32.221Z,8.62
2018-10-09T03:13:32.179Z,8.58
2018-10-09T03:14:32.128Z,8.63
2018-10-09T03:15:32.088Z,8.62
2018-10-09T03:16:32.071Z,8.70
2018-10-09T03:17:32.005Z,8.73
2018-10-09T03:18:31.967Z,8.73
2018-10-09T03:19:31.924Z,8.73
2018-10-09T03:20:31.896Z,8.73
2018-10-09T03:21:31.867Z,8.79
2018-10-09T03:22:31.788Z,8.91
2018-10-09T03:23:31.746Z,8.87
2018-10-09T03:24:31.702Z,8.86
2018-10-09T03:25:31.664Z,8.83
2018-10-09T03:26:31.652Z,8.84
2018-10-09T03:27:31.586Z,8.86
2018-10-09T03:28:31.535Z,8.91
2018-10-09T03:29:31.492Z,8.89
2018-10-09T03:30:31.462Z,8.98
2018-10-09T03:31:31.417Z,9.05
2018-10-09T03:32:31.397Z,9.04
2018-10-09T03:33:31.329Z,9.01
2018-10-09T03:34:31.278Z,9.14
2018-10-09T03:35:31.239Z,9.14
2018-10-09T03:36:31.197Z,9.17
2018-10-09T03:37:31.150Z,9.14
2018-10-09T03:38:31.140Z,9.18
2018-10-09T03:39:31.074Z,9.17
2018-10-09T03:40:31.033Z,9.21
2018-10-09T03:41:30.990Z,9.23
2018-10-09T03:42:30.964Z,9.18
2018-10-09T03:43:30.902Z,9.28
2018-10-09T03:44:30.890Z,9.23
2018-10-09T03:45:30.822Z,9.21
2018-10-09T03:46:30.773Z,9.21
2018-10-09T03:47:30.731Z,9.32
2018-10-09T03:48:30.686Z,9.36
2018-10-09T03:49:30.677Z,9.35
2018-10-09T03:50:30.613Z,9.38
2018-10-09T03:51:30.575Z,9.38
2018-10-09T03:52:30.526Z,9.35
2018-10-09T03:53:30.484Z,9.42
2018-10-09T03:54:30.435Z,9.35
2018-10-09T03:55:30.415Z,9.36
2018-10-09T03:56:30.351Z,9.33
2018-10-09T03:57:30.309Z,9.31
2018-10-09T03:58:30.295Z,9.32
2018-10-09T03:59:30.232Z,9.17
2018-10-09T04:00:30.182Z,9.18
2018-10-09T04:01:30.141Z,9.23
2018-10-09T04:02:30.104Z,9.20
2018-10-09T04:03:30.087Z,9.28
2018-10-09T04:04:30.042Z,9.21
2018-10-09T04:05:29.978Z,9.28
2018-10-09T04:06:29.935Z,9.23
2018-10-09T04:07:29.888Z,9.28
2018-10-09T04:08:29.844Z,9.18
2018-10-09T04:09:29.896Z,9.24
2018-10-09T04:10:29.767Z,9.28
2018-10-09T04:11:29.723Z,9.21
2018-10-09T04:12:29.737Z,9.23
2018-10-09T04:13:29.644Z,9.21
2018-10-09T04:14:29.590Z,9.18
2018-10-09T04:15:29.572Z,9.18
2018-10-09T04:16:29.513Z,9.24
2018-10-09T04:17:29.472Z,9.23
2018-10-09T04:18:29.423Z,9.24
2018-10-09T04:19:29.455Z,9.31
2018-10-09T04:20:29.337Z,9.35
2018-10-09T04:21:29.297Z,9.35
2018-10-09T04:22:29.288Z,9.39
2018-10-09T04:23:29.218Z,9.39
2018-10-09T04:24:29.199Z,9.33
2018-10-09T04:25:29.136Z,9.35
2018-10-09T04:26:29.085Z,9.36
2018-10-09T04:27:29.071Z,9.21
2018-10-09T04:28:29.000Z,9.23
2018-10-09T04:29:29.014Z,9.20
2018-10-09T04:30:28.946Z,9.21
2018-10-09T04:31:28.884Z,9.20
2018-10-09T04:32:28.831Z,9.14
2018-10-09T04:33:28.788Z,9.01
2018-10-09T04:34:28.756Z,8.95
2018-10-09T04:35:28.770Z,8.94
2018-10-09T04:36:28.680Z,8.77
2018-10-09T04:37:28.628Z,8.74
2018-10-09T04:38:28.579Z,8.63
2018-10-09T04:39:28.536Z,8.68
2018-10-09T04:40:28.516Z,8.53
2018-10-09T04:41:28.454Z,8.47
2018-10-09T04:42:28.419Z,8.50
2018-10-09T04:43:28.374Z,8.43
2018-10-09T04:44:28.331Z,8.36
2018-10-09T04:45:28.339Z,8.22
2018-10-09T04:46:28.241Z,8.16
2018-10-09T04:47:28.199Z,8.12
2018-10-09T04:48:28.168Z,8.15
2018-10-09T04:49:28.120Z,8.10
2018-10-09T04:50:28.100Z,8.10
2018-10-09T04:51:28.029Z,7.98
2018-10-09T04:52:27.985Z,8.01
2018-10-09T04:53:27.946Z,7.92
2018-10-09T04:54:27.911Z,7.92
2018-10-09T04:55:27.869Z,7.92
2018-10-09T04:56:27.846Z,7.79
2018-10-09T04:57:27.783Z,7.71
2018-10-09T04:58:27.735Z,7.82
2018-10-09T04:59:27.695Z,7.79
2018-10-09T05:00:27.649Z,7.87
2018-10-09T05:01:27.630Z,7.75
2018-10-09T05:02:27.597Z,7.75
2018-10-09T05:03:27.529Z,7.72
2018-10-09T05:04:27.487Z,7.69
2018-10-09T05:05:27.438Z,7.80
2018-10-09T05:06:27.424Z,7.74
2018-10-09T05:07:27.385Z,7.72
2018-10-09T05:08:27.317Z,7.79
2018-10-09T05:09:27.279Z,7.64
2018-10-09T05:10:27.222Z,7.80
2018-10-09T05:11:27.206Z,7.85
2018-10-09T05:12:27.147Z,7.82
2018-10-09T05:13:27.105Z,7.74
2018-10-09T05:14:27.055Z,7.74
2018-10-09T05:15:27.014Z,7.74
2018-10-09T05:16:26.998Z,7.85
2018-10-09T05:17:26.952Z,7.72
2018-10-09T05:18:26.895Z,7.77
2018-10-09T05:19:26.851Z,7.86
2018-10-09T05:20:26.799Z,7.80
2018-10-09T05:21:26.756Z,7.90
2018-10-09T05:22:26.748Z,7.89
2018-10-09T05:23:26.680Z,7.93
2018-10-09T05:24:26.634Z,7.75
2018-10-09T05:25:26.590Z,7.87
2018-10-09T05:26:26.543Z,7.74
2018-10-09T05:27:26.523Z,7.72
2018-10-09T05:28:26.484Z,7.74
2018-10-09T05:29:26.417Z,7.60
2018-10-09T05:30:26.379Z,7.60
2018-10-09T05:31:26.357Z,7.58
2018-10-09T05:32:26.296Z,7.68
2018-10-09T05:33:26.280Z,7.52
2018-10-09T05:34:26.204Z,7.53
2018-10-09T05:35:26.161Z,7.55
2018-10-09T05:36:26.123Z,7.50
2018-10-09T05:37:26.110Z,7.35
2018-10-09T05:38:26.033Z,7.37
2018-10-09T05:39:25.992Z,7.55
2018-10-09T05:40:25.949Z,7.87
2018-10-09T05:41:25.904Z,8.07
2018-10-09T05:42:25.868Z,8.10
2018-10-09T05:43:25.850Z,8.08
2018-10-09T05:44:25.886Z,8.20
2018-10-09T05:45:25.745Z,8.20
2018-10-09T05:46:25.689Z,8.20
2018-10-09T05:47:25.646Z,8.26
2018-10-09T05:48:25.633Z,8.33
2018-10-09T05:49:25.563Z,8.44
2018-10-09T05:50:25.529Z,8.48
2018-10-09T05:51:25.483Z,8.63
2018-10-09T05:52:25.438Z,8.61
2018-10-09T05:53:25.389Z,8.68
2018-10-09T05:54:25.381Z,8.70
2018-10-09T05:55:25.312Z,8.71
2018-10-09T05:56:25.271Z,8.84
2018-10-09T05:57:25.227Z,8.91
2018-10-09T05:58:25.176Z,8.98
2018-10-09T05:59:25.162Z,8.84
2018-10-09T06:00:25.093Z,9.01
2018-10-09T06:01:25.051Z,8.87
2018-10-09T06:02:25.012Z,8.80
2018-10-09T06:03:24.976Z,8.95
2018-10-09T06:04:24.930Z,9.02
2018-10-09T06:05:24.911Z,8.98
2018-10-09T06:06:24.836Z,9.13
2018-10-09T06:07:24.800Z,9.02
2018-10-09T06:08:24.760Z,9.02
2018-10-09T06:09:24.718Z,8.92
2018-10-09T06:10:24.694Z,9.02
2018-10-09T06:11:24.624Z,9.13
2018-10-09T06:12:24.584Z,9.05
2018-10-09T06:13:24.541Z,9.01
2018-10-09T06:14:24.526Z,9.11
2018-10-09T06:15:24.481Z,8.99
2018-10-09T06:16:24.419Z,9.01
2018-10-09T06:17:24.381Z,8.95
2018-10-09T06:18:24.333Z,8.99
2018-10-09T06:19:24.311Z,9.08
2018-10-09T06:20:24.244Z,9.15
2018-10-09T06:21:24.202Z,9.18
2018-10-09T06:22:24.193Z,9.23
2018-10-09T06:23:24.124Z,9.38
2018-10-09T06:24:24.103Z,9.31
2018-10-09T06:25:24.034Z,9.31
2018-10-09T06:26:24.000Z,9.36
2018-10-09T06:27:23.953Z,9.58
2018-10-09T06:28:23.939Z,9.57
2018-10-09T06:29:23.873Z,9.66
2018-10-09T06:30:23.848Z,9.58
2018-10-09T06:31:23.805Z,9.76
2018-10-09T06:32:23.738Z,9.75
2018-10-09T06:33:23.701Z,9.74
2018-10-09T06:34:23.662Z,9.87
2018-10-09T06:35:23.623Z,9.93
2018-10-09T06:36:23.607Z,10.12
2018-10-09T06:37:23.602Z,10.11
2018-10-09T06:38:23.491Z,10.20
2018-10-09T06:39:23.453Z,10.18
2018-10-09T06:40:23.413Z,10.33
2018-10-09T06:41:23.397Z,10.41
2018-10-09T06:42:23.323Z,10.60
2018-10-09T06:43:23.282Z,10.59
2018-10-09T06:44:23.236Z,10.67
2018-10-09T06:45:23.200Z,10.71
2018-10-09T06:46:23.184Z,10.88
2018-10-09T06:47:23.150Z,11.00
2018-10-09T06:48:23.082Z,11.07
2018-10-09T06:49:23.039Z,11.14
2018-10-09T06:50:22.993Z,11.18
2018-10-09T06:51:22.975Z,11.32
2018-10-09T06:52:22.906Z,11.25
2018-10-09T06:53:22.933Z,11.33
2018-10-09T06:54:22.841Z,11.25
2018-10-09T06:55:22.792Z,11.27
2018-10-09T06:56:22.769Z,11.25
2018-10-09T06:57:22.704Z,11.36
2018-10-09T06:58:22.673Z,11.42
2018-10-09T06:59:22.630Z,11.40
2018-10-09T07:00:22.683Z,11.39
2018-10-09T07:01:22.553Z,11.36
2018-10-09T07:02:22.503Z,11.42
2018-10-09T07:03:22.489Z,11.43
2018-10-09T07:04:22.427Z,11.35
2018-10-09T07:05:22.384Z,11.35
2018-10-09T07:06:22.348Z,11.42
2018-10-09T07:07:22.335Z,11.39
2018-10-09T07:08:22.297Z,11.39
2018-10-09T07:09:22.299Z,11.42
2018-10-09T07:10:22.186Z,11.33
2018-10-09T07:11:22.227Z,11.25
2018-10-09T07:12:22.108Z,11.24
2018-10-09T07:13:22.068Z,11.24
2018-10-09T07:14:22.055Z,11.11
2018-10-09T07:15:21.985Z,11.18
2018-10-09T07:16:21.946Z,11.17
2018-10-09T07:17:21.904Z,11.11
2018-10-09T07:18:21.870Z,11.21
2018-10-09T07:19:21.829Z,11.46
2018-10-09T07:20:21.811Z,11.86
2018-10-09T07:21:21.750Z,12.13
2018-10-09T07:22:21.705Z,12.27
2018-10-09T07:23:21.662Z,12.50
2018-10-09T07:24:21.627Z,12.83
2018-10-09T07:25:21.608Z,12.89
2018-10-09T07:26:21.555Z,13.05
2018-10-09T07:27:21.515Z,13.19
2018-10-09T07:28:21.466Z,13.30
2018-10-09T07:29:21.429Z,13.25
2018-10-09T07:30:21.420Z,13.36
2018-10-09T07:31:21.360Z,13.45
2018-10-09T07:32:21.340Z,13.51
2018-10-09T07:33:21.280Z,13.57
2018-10-09T07:34:21.233Z,13.77
2018-10-09T07:35:21.219Z,14.02
2018-10-09T07:36:21.164Z,13.96
2018-10-09T07:37:21.174Z,14.06
2018-10-09T07:38:21.114Z,13.88
2018-10-09T07:39:21.051Z,13.87
2018-10-09T07:40:21.013Z,13.79
2018-10-09T07:41:20.977Z,13.79
2018-10-09T07:42:20.932Z,13.75
2018-10-09T07:43:20.918Z,13.69
2018-10-09T07:44:20.947Z,13.48
2018-10-09T07:45:20.849Z,13.45
2018-10-09T07:46:20.779Z,13.12
2018-10-09T07:47:20.746Z,13.01
2018-10-09T07:48:20.733Z,12.86
2018-10-09T07:49:20.668Z,12.85
2018-10-09T07:50:20.662Z,12.72
2018-10-09T07:51:20.600Z,12.77
2018-10-09T07:52:20.623Z,12.75
2018-10-09T07:53:20.532Z,12.68
2018-10-09T07:54:20.481Z,12.77
2018-10-09T07:55:20.467Z,12.85
2018-10-09T07:56:20.402Z,12.78
2018-10-09T07:57:20.367Z,12.86
2018-10-09T07:58:20.336Z,12.86
2018-10-09T07:59:20.300Z,12.87
2018-10-09T08:00:20.276Z,12.87
2018-10-09T08:01:20.216Z,12.78
2018-10-09T08:02:20.182Z,12.86
2018-10-09T08:03:20.146Z,12.86
2018-10-09T08:04:20.106Z,12.85
2018-10-09T08:05:20.089Z,12.86
2018-10-09T08:06:20.024Z,12.86
2018-10-09T08:07:19.985Z,12.85
2018-10-09T08:08:19.943Z,12.89
2018-10-09T08:09:19.928Z,12.86
2018-10-09T08:10:19.948Z,13.05
2018-10-09T08:11:19.841Z,13.20
2018-10-09T08:12:19.798Z,13.46
2018-10-09T08:13:19.758Z,13.60
2018-10-09T08:14:19.715Z,13.85
2018-10-09T08:15:19.700Z,14.12
2018-10-09T08:16:19.660Z,14.02
2018-10-09T08:17:19.606Z,14.22
2018-10-09T08:18:19.562Z,14.28
2018-10-09T08:19:19.524Z,14.55
2018-10-09T08:20:19.510Z,14.69
2018-10-09T08:21:19.447Z,14.69
2018-10-09T08:22:19.466Z,14.96
2018-10-09T08:23:19.379Z,15.31
2018-10-09T08:24:19.343Z,15.36
2018-10-09T08:25:19.307Z,15.71
2018-10-09T08:26:19.258Z,15.82
2018-10-09T08:27:19.249Z,16.15
2018-10-09T08:28:19.188Z,16.25
2018-10-09T08:29:19.146Z,16.34
2018-10-09T08:30:19.118Z,16.20
2018-10-09T08:31:19.082Z,16.31
2018-10-09T08:32:19.098Z,16.28
2018-10-09T08:33:19.034Z,16.25
2018-10-09T08:34:18.995Z,16.56
2018-10-09T08:35:18.965Z,16.57
2018-10-09T08:36:18.908Z,16.68
2018-10-09T08:37:18.871Z,16.89
2018-10-09T08:38:18.851Z,17.01
2018-10-09T08:39:18.790Z,17.14
2018-10-09T08:40:18.768Z,17.54
2018-10-09T08:41:18.765Z,17.52
2018-10-09T08:42:18.692Z,17.71
2018-10-09T08:43:18.655Z,17.62
2018-10-09T08:44:18.621Z,16.89
2018-10-09T08:45:18.587Z,16.48
2018-10-09T08:46:18.581Z,16.39
2018-10-09T08:47:18.511Z,16.23
2018-10-09T08:48:18.483Z,16.30
2018-10-09T08:49:18.449Z,16.57
2018-10-09T08:50:18.409Z,16.52
2018-10-09T08:51:18.380Z,16.89
2018-10-09T08:52:18.361Z,16.88
2018-10-09T08:53:18.307Z,17.12
2018-10-09T08:54:18.278Z,17.00
2018-10-09T08:55:18.271Z,17.33
2018-10-09T08:56:18.212Z,17.55
2018-10-09T08:57:18.223Z,17.59
2018-10-09T08:58:18.137Z,17.71
2018-10-09T08:59:18.104Z,17.90
2018-10-09T09:00:18.069Z,18.23
2018-10-09T09:01:18.057Z,18.05
2018-10-09T09:02:18.008Z,18.33
2018-10-09T09:03:17.976Z,18.30
2018-10-09T09:04:17.938Z,18.14
2018-10-09T09:05:17.925Z,17.96
2018-10-09T09:06:17.872Z,18.05
2018-10-09T09:07:17.841Z,18.02
2018-10-09T09:08:17.810Z,17.74
2018-10-09T09:09:17.775Z,17.99
2018-10-09T09:10:17.763Z,18.29
2018-10-09T09:11:17.701Z,18.44
2018-10-09T09:12:17.666Z,18.65
2018-10-09T09:13:17.634Z,18.75
2018-10-09T09:14:17.607Z,18.51
2018-10-09T09:15:17.631Z,18.03
2018-10-09T09:16:17.571Z,18.54
2018-10-09T09:17:17.509Z,18.91
2018-10-09T09:18:17.471Z,19.21
2018-10-09T09:19:17.433Z,19.71
2018-10-09T09:20:17.409Z,19.54
2018-10-09T09:21:17.504Z,19.21
2018-10-09T09:22:17.336Z,19.23
2018-10-09T09:23:17.306Z,19.33
2018-10-09T09:24:17.270Z,19.06
2018-10-09T09:25:17.240Z,18.91
2018-10-09T09:26:17.308Z,18.33
2018-10-09T09:27:17.312Z,18.23
2018-10-09T09:28:17.149Z,18.29
2018-10-09T09:29:17.139Z,18.02
2018-10-09T09:30:17.076Z,18.18
2018-10-09T09:31:17.044Z,18.00
2018-10-09T09:32:17.014Z,17.90
2018-10-09T09:33:17.046Z,17.68
2018-10-09T09:34:16.979Z,17.31
2018-10-09T09:35:16.918Z,17.25
2018-10-09T09:36:16.881Z,17.38
2018-10-09T09:37:16.854Z,17.49
2018-10-09T09:38:16.823Z,17.64
2018-10-09T09:39:16.813Z,17.72
2018-10-09T09:40:16.781Z,17.97
2018-10-09T09:41:16.723Z,18.35
2018-10-09T09:42:16.683Z,18.58
2018-10-09T09:43:16.655Z,18.69
2018-10-09T09:44:16.633Z,19.00
2018-10-09T09:45:16.577Z,19.25
2018-10-09T09:46:16.643Z,19.40
2018-10-09T09:47:16.521Z,18.99
2018-10-09T09:48:16.484Z,18.70
2018-10-09T09:49:16.475Z,18.47
2018-10-09T09:50:16.439Z,18.23
2018-10-09T09:51:16.379Z,17.75
2018-10-09T09:52:16.448Z,18.03
2018-10-09T09:53:16.319Z,18.12
2018-10-09T09:54:16.304Z,18.08
2018-10-09T09:55:16.245Z,18.07
2018-10-09T09:56:16.208Z,18.10
2018-10-09T09:57:16.176Z,18.12
2018-10-09T09:58:16.340Z,18.35
2018-10-09T09:59:16.135Z,18.66
2018-10-09T10:00:16.106Z,18.87
2018-10-09T10:01:16.049Z,18.72
2018-10-09T10:02:16.007Z,18.80
2018-10-09T10:03:15.974Z,18.76
2018-10-09T10:04:15.942Z,18.73
2018-10-09T10:05:15.928Z,18.55
2018-10-09T10:06:15.881Z,18.66
2018-10-09T10:07:15.848Z,18.98
2018-10-09T10:08:15.808Z,19.10
2018-10-09T10:09:15.805Z,19.26
2018-10-09T10:10:15.767Z,19.14
2018-10-09T10:11:15.738Z,18.73
2018-10-09T10:12:15.680Z,18.73
2018-10-09T10:13:15.649Z,18.95
2018-10-09T10:14:15.607Z,19.08
2018-10-09T10:15:15.592Z,18.85
2018-10-09T10:16:15.535Z,18.98
2018-10-09T10:17:15.508Z,19.26
2018-10-09T10:18:15.482Z,19.37
2018-10-09T10:19:15.444Z,19.66
2018-10-09T10:20:15.430Z,20.17
2018-10-09T10:21:15.408Z,20.31
2018-10-09T10:22:15.339Z,20.03
2018-10-09T10:23:15.329Z,20.18
2018-10-09T10:24:15.276Z,20.24
2018-10-09T10:25:15.243Z,20.24
2018-10-09T10:26:15.204Z,20.24
2018-10-09T10:27:15.169Z,20.24
2018-10-09T10:28:15.163Z,20.33
2018-10-09T10:29:15.162Z,20.29
2018-10-09T10:30:15.081Z,20.47
2018-10-09T10:31:15.050Z,20.72
2018-10-09T10:32:15.018Z,20.64
2018-10-09T10:33:14.981Z,20.18
2018-10-09T10:34:14.965Z,20.21
2018-10-09T10:35:14.909Z,20.26
2018-10-09T10:36:14.879Z,20.36
2018-10-09T10:37:14.856Z,20.42
2018-10-09T10:38:14.820Z,20.55
2018-10-09T10:39:14.811Z,21.03
2018-10-09T10:40:14.749Z,20.87
2018-10-09T10:41:14.716Z,20.94
2018-10-09T10:42:14.753Z,21.21
2018-10-09T10:43:14.665Z,21.40
2018-10-09T10:44:14.654Z,21.29
2018-10-09T10:45:14.596Z,21.06
2018-10-09T10:46:14.559Z,20.99
2018-10-09T10:47:14.556Z,20.89
2018-10-09T10:48:14.494Z,20.69
2018-10-09T10:49:14.521Z,20.43
2018-10-09T10:50:14.438Z,20.57
2018-10-09T10:51:14.407Z,20.41
2018-10-09T10:52:14.399Z,20.38
2018-10-09T10:53:14.344Z,20.41
2018-10-09T10:54:14.305Z,20.13
2018-10-09T10:55:14.274Z,19.66
2018-10-09T10:56:14.248Z,19.78
2018-10-09T10:57:14.237Z,19.81
2018-10-09T10:58:14.175Z,19.88
2018-10-09T10:59:14.167Z,19.92
2018-10-09T11:00:14.113Z,20.11
2018-10-09T11:01:14.111Z,20.17
2018-10-09T11:02:14.082Z,20.58
2018-10-09T11:03:14.026Z,20.85
2018-10-09T11:04:13.989Z,21.12
2018-10-09T11:05:13.954Z,21.32
2018-10-09T11:06:13.922Z,21.25
2018-10-09T11:07:13.884Z,21.31
2018-10-09T11:08:13.875Z,21.16
2018-10-09T11:09:13.818Z,21.01
2018-10-09T11:10:13.823Z,20.98
2018-10-09T11:11:13.762Z,20.84
2018-10-09T11:12:13.727Z,20.95
2018-10-09T11:13:13.719Z,21.16
2018-10-09T11:14:13.665Z,21.16
2018-10-09T11:15:13.637Z,21.01
2018-10-09T11:16:13.607Z,21.13
2018-10-09T11:17:13.573Z,20.99
2018-10-09T11:18:13.535Z,20.74
2018-10-09T11:19:13.525Z,20.57
2018-10-09T11:20:13.471Z,20.38
2018-10-09T11:21:13.549Z,20.33
2018-10-09T11:22:13.414Z,20.33
2018-10-09T11:23:13.385Z,20.29
2018-10-09T11:24:13.378Z,20.06
2018-10-09T11:25:13.318Z,19.98
2018-10-09T11:26:13.280Z,19.84
2018-10-09T11:27:13.244Z,19.69
2018-10-09T11:28:13.219Z,19.78
2018-10-09T11:29:13.217Z,19.71
2018-10-09T11:30:13.149Z,19.73
2018-10-09T11:31:13.119Z,19.81
2018-10-09T11:32:13.078Z,19.83
2018-10-09T11:33:13.046Z,19.76
2018-10-09T11:34:13.024Z,19.77
2018-10-09T11:35:13.008Z,19.78
2018-10-09T11:36:13.000Z,19.48
2018-10-09T11:37:12.922Z,19.55
2018-10-09T11:38:12.877Z,19.58
2018-10-09T11:39:12.850Z,19.74
2018-10-09T11:40:12.838Z,19.98
2018-10-09T11:41:12.785Z,20.20
2018-10-09T11:42:12.751Z,20.33
2018-10-09T11:43:12.748Z,20.13
2018-10-09T11:44:12.680Z,20.23
2018-10-09T11:45:12.671Z,20.48
2018-10-09T11:46:12.622Z,20.48
2018-10-09T11:47:12.609Z,20.41
2018-10-09T11:48:12.557Z,20.62
2018-10-09T11:49:12.522Z,20.84
2018-10-09T11:50:12.510Z,20.80
2018-10-09T11:51:12.449Z,20.82
2018-10-09T11:52:12.419Z,20.99
2018-10-09T11:53:12.384Z,20.70
2018-10-09T11:54:12.359Z,20.64
2018-10-09T11:55:12.336Z,20.73
2018-10-09T11:56:12.312Z,20.89
2018-10-09T11:57:12.259Z,20.98
2018-10-09T11:58:12.222Z,20.94
2018-10-09T11:59:12.263Z,21.06
2018-10-09T12:00:12.164Z,21.31
2018-10-09T12:01:12.161Z,21.32
2018-10-09T12:02:12.096Z,21.10
2018-10-09T12:03:12.063Z,21.12
2018-10-09T12:04:12.031Z,21.35
2018-10-09T12:05:11.999Z,21.34
2018-10-09T12:06:11.974Z,21.52
2018-10-09T12:07:11.967Z,21.29
2018-10-09T12:08:11.951Z,20.95
2018-10-09T12:09:11.881Z,20.66
2018-10-09T12:10:11.841Z,20.76
2018-10-09T12:11:11.811Z,20.88
2018-10-09T12:12:11.804Z,21.07
2018-10-09T12:13:11.746Z,21.04
2018-10-09T12:14:11.721Z,20.95
2018-10-09T12:15:11.691Z,20.99
2018-10-09T12:16:11.653Z,21.07
2018-10-09T12:17:11.644Z,21.19
2018-10-09T12:18:11.598Z,21.37
2018-10-09T12:19:11.568Z,21.43
2018-10-09T12:20:11.537Z,21.37
2018-10-09T12:21:11.505Z,21.21
2018-10-09T12:22:11.491Z,21.35
2018-10-09T12:23:11.435Z,21.29
2018-10-09T12:24:11.406Z,21.32
2018-10-09T12:25:11.370Z,21.42
2018-10-09T12:26:11.353Z,21.38
2018-10-09T12:27:11.408Z,21.38
2018-10-09T12:28:11.287Z,21.32
2018-10-09T12:29:11.257Z,21.42
2018-10-09T12:30:11.222Z,21.50
2018-10-09T12:31:11.192Z,21.47
2018-10-09T12:32:11.189Z,21.52
2018-10-09T12:33:11.139Z,21.47
2018-10-09T12:34:11.122Z,21.50
2018-10-09T12:35:11.068Z,21.31
2018-10-09T12:36:11.100Z,21.24
2018-10-09T12:37:11.034Z,21.17
2018-10-09T12:38:11.032Z,21.29
2018-10-09T12:39:10.954Z,21.29
2018-10-09T12:40:10.925Z,21.10
2018-10-09T12:41:10.893Z,21.21
2018-10-09T12:42:10.857Z,21.22
2018-10-09T12:43:10.846Z,21.25
2018-10-09T12:44:10.800Z,21.42
2018-10-09T12:45:10.764Z,21.46
2018-10-09T12:46:10.734Z,21.52
2018-10-09T12:47:10.709Z,21.47
2018-10-09T12:48:10.692Z,21.27
2018-10-09T12:49:10.634Z,21.14
2018-10-09T12:50:10.616Z,21.13
2018-10-09T12:51:10.589Z,21.12
2018-10-09T12:52:10.557Z,21.32
2018-10-09T12:53:10.544Z,21.29
2018-10-09T12:54:10.502Z,21.37
2018-10-09T12:55:10.450Z,21.49
2018-10-09T12:56:10.420Z,21.49
2018-10-09T12:57:10.527Z,21.59
2018-10-09T12:58:10.389Z,21.59
2018-10-09T12:59:10.420Z,21.62
2018-10-09T13:00:10.295Z,21.58
2018-10-09T13:01:10.261Z,21.74
2018-10-09T13:02:10.225Z,21.62
2018-10-09T13:03:10.264Z,21.61
2018-10-09T13:04:10.183Z,21.72
2018-10-09T13:05:10.127Z,21.82